Soaring Guidance
Issued by NWS Reno, NV

Home | Current Version | Previous Version | Text Only | Print | Product List | Glossary On
Versions: 1 2 3 4 5 6 7 8 9 10 11 12 13 14
000
UXUS97 KREV 121442
SRGREV

SOARING FORECAST
NATIONAL WEATHER SERVICE - RENO NV
700 AM PST TUE DEC 12 2017

THIS SOARING FORECAST IS FOR THE EASTERN SIERRA AND WESTERN NEVADA
WITH SPECIFIC INDICES FOR THE GREATER RENO AREA.

THIS FORECAST IS PREPARED DAILY BY 700 AM AND IS NOT UPDATED.

FOR CURRENT FLIGHT CONDITIONS...FORECASTS...AND ADVISORIES...ACCESS
YOUR LOCAL BRIEFING OUTLET OR FLIGHT SERVICE STATION.

*******************************************************************
FORECASTED LOCAL INDICES FOR RENO:        TODAY     YESTERDAY
FORECASTED MAX TEMP AT RENO (DEG F).....     47          46
FORECASTED TRIGGER TEMPERATURE (DEG F)..     71          68
   EXCEEDED YESTERDAY BY
FORECASTED MAXIMUM ALTITUDE (FT MSL)....   6000        6200
FORECASTED SOARING INDEX (FPM)..........    360         276
FORECASTED K-INDEX.........VALID 18Z....    -39         -36
FORECASTED K-INDEX.........VALID 00Z....    -36         -28
FORECASTED LIFTED INDEX....VALID 18Z....     15          14
FORECASTED LIFTED INDEX....VALID 00Z....     13          12

AFTERNOON WINDS ALOFT FORECAST
MSL (FT) WIND/TEMP
9000  9900/+10
10000 9900/+07
12000 9900/+03
14000 9902/-02
16000 9905/-08
18000 2212/-14
24000 0609/-27
30000 0317/-44
34000 0319/-54
39000 0216/-59

SLIDE MOUNTAIN DATA:
     DATE       TIME     TEMP  DEWPT   RH         WIND (MPH)
                        (F)   (F)           | DIR  SPEED GUST


RUN: 2017-12-12  06:20 AM

SIERRA CREST 8700 FT DATA:
   DATE     TIME  TEMP  RH         WIND
                            DIR   SPEED   GUST
2017-12-12 0545   48    3   090     12     14
2017-12-12 0530   49    3   087     10     12
2017-12-12 0515   49    3   089     10     12
2017-12-12 0500   49    3   094     11     12

RENO TAF FORECAST:
KRNO 121120Z 1212/1312 VRB02KT P6SM FEW250

CARSON CITY TAF FORECAST:
KCXP 121120Z 1212/1312 00000KT P6SM FEW250
      TEMPO 1221/1301 08009KT

OUTLOOK FOR THE RENO-CARSON CITY-MINDEN AREA:
.WEDNESDAY...SUNNY, HAZE. HIGHS 43 TO 53. LIGHT WINDS.

SUNRISE AND SUNSET
DECEMBER 12 2017......SUNRISE   710 AM PST   SUNSET   436 PM PST
DECEMBER 13 2017......SUNRISE   711 AM PST   SUNSET   436 PM PST


USA.gov is the U.S. government's official web portal to all federal, state and local government web resources and services.